Time;durP1;ratioP1;P1;durP2;ratioP2;P2;SDS_P1;SDS_P2;PMS_P1;PMS_P2;Temp;Humidity;BMP_temperature;BMP_pressure;BME280_temperature;BME280_humidity;BME280_pressure;Samples;Min_cycle;Max_cycle;Signal;HPM_P1;HPM_P2
2020/12/13 00:00:50;;;;;;;0.83;0.80;;;6.70;99.90;;;;;;5071521;28;20200;-86
2020/12/13 00:03:16;;;;;;;1.20;0.73;;;6.70;99.90;;;;;;5072361;28;20288;-86
2020/12/13 00:05:42;;;;;;;0.87;0.57;;;6.80;99.90;;;;;;5066316;28;20181;-86
2020/12/13 00:08:08;;;;;;;0.63;0.63;;;6.90;99.90;;;;;;5077722;28;20188;-85
2020/12/13 00:10:34;;;;;;;0.87;0.87;;;7.10;99.90;;;;;;5072869;28;20261;-86
2020/12/13 00:12:59;;;;;;;1.20;1.00;;;7.10;99.90;;;;;;5072140;28;20675;-85
2020/12/13 00:15:25;;;;;;;2.13;1.93;;;7.00;99.90;;;;;;5068472;28;20185;-86
2020/12/13 00:17:51;;;;;;;3.40;1.47;;;6.90;99.90;;;;;;5062642;28;20184;-86
2020/12/13 00:20:17;;;;;;;4.00;0.53;;;7.00;99.90;;;;;;5071623;28;20565;-86
2020/12/13 00:22:44;;;;;;;3.07;1.17;;;7.10;99.90;;;;;;5071733;28;20197;-86
2020/12/13 00:25:10;;;;;;;0.70;0.70;;;7.10;99.90;;;;;;5071273;28;20710;-87
2020/12/13 00:27:36;;;;;;;0.80;0.80;;;7.10;99.90;;;;;;5070534;28;20186;-86
2020/12/13 00:30:03;;;;;;;1.07;0.90;;;7.20;99.90;;;;;;5070893;28;20180;-86
2020/12/13 00:32:29;;;;;;;2.43;0.93;;;7.30;99.90;;;;;;5072120;28;20173;-86
2020/12/13 00:34:58;;;;;;;1.40;1.23;;;7.40;99.90;;;;;;5071495;28;20220;-86
2020/12/13 00:37:25;;;;;;;4.33;0.80;;;7.40;99.90;;;;;;5069635;28;20188;-85
2020/12/13 00:39:51;;;;;;;1.50;1.07;;;7.50;99.90;;;;;;5069508;28;20188;-86
2020/12/13 00:42:17;;;;;;;1.60;1.50;;;7.50;99.90;;;;;;5061890;28;20823;-85
2020/12/13 00:44:43;;;;;;;2.17;1.63;;;7.60;99.90;;;;;;5071257;28;20680;-86
2020/12/13 00:47:09;;;;;;;0.70;0.70;;;7.60;99.90;;;;;;5070418;28;20181;-86
2020/12/13 00:49:35;;;;;;;1.57;0.90;;;7.60;99.90;;;;;;5069664;28;20192;-86
2020/12/13 00:52:02;;;;;;;3.60;0.83;;;7.60;99.90;;;;;;5071440;28;20350;-86
2020/12/13 00:54:27;;;;;;;2.57;0.97;;;7.60;99.90;;;;;;5085251;28;20189;-86
2020/12/13 00:56:53;;;;;;;0.70;0.70;;;7.70;99.90;;;;;;5070363;28;20228;-86
2020/12/13 00:59:18;;;;;;;0.83;0.83;;;7.70;99.90;;;;;;5083589;28;20234;-86
2020/12/13 01:01:44;;;;;;;2.17;1.27;;;7.70;99.90;;;;;;5070702;28;20218;-86
2020/12/13 01:04:09;;;;;;;1.77;1.20;;;7.70;99.90;;;;;;5070775;28;20741;-86
2020/12/13 01:06:35;;;;;;;1.10;1.00;;;7.70;99.90;;;;;;5073081;28;20180;-84
2020/12/13 01:09:01;;;;;;;1.97;1.50;;;7.70;99.90;;;;;;5067649;28;20173;-86
2020/12/13 01:11:28;;;;;;;3.77;1.00;;;7.70;99.90;;;;;;5070500;28;20205;-86
2020/12/13 01:13:54;;;;;;;1.40;0.77;;;7.70;99.90;;;;;;5070552;28;20283;-86
2020/12/13 01:16:21;;;;;;;1.33;1.23;;;7.70;99.90;;;;;;5070263;28;20193;-86
2020/12/13 01:18:47;;;;;;;1.00;0.90;;;7.60;99.90;;;;;;5071625;28;20216;-86
2020/12/13 01:21:17;;;;;;;1.37;0.93;;;7.60;99.90;;;;;;5069344;28;20819;-86
2020/12/13 01:23:43;;;;;;;0.60;0.60;;;7.60;99.90;;;;;;5069613;28;20235;-86
2020/12/13 01:26:16;;;;;;;2.40;1.90;;;7.70;99.90;;;;;;5070660;28;20212;-86
2020/12/13 01:28:42;;;;;;;2.20;0.60;;;7.60;99.90;;;;;;5068705;28;20188;-86
2020/12/13 01:31:08;;;;;;;0.67;0.67;;;7.60;99.90;;;;;;5060842;28;20279;-85
2020/12/13 01:33:34;;;;;;;3.33;1.23;;;7.60;99.90;;;;;;5066284;28;20253;-86
2020/12/13 01:36:00;;;;;;;4.00;1.23;;;7.60;99.90;;;;;;5070361;28;20272;-86
2020/12/13 01:38:26;;;;;;;0.57;0.57;;;7.60;99.90;;;;;;5070445;28;20275;-86
2020/12/13 01:40:59;;;;;;;1.00;0.97;;;7.60;99.90;;;;;;5069833;28;20292;-86
2020/12/13 01:43:26;;;;;;;0.57;0.57;;;7.50;99.90;;;;;;5071133;28;20211;-86
2020/12/13 01:45:52;;;;;;;2.30;1.43;;;7.50;99.90;;;;;;5069938;28;20711;-86
2020/12/13 01:48:18;;;;;;;0.93;0.43;;;7.60;99.90;;;;;;5071424;28;20276;-86
2020/12/13 01:50:55;;;;;;;0.90;0.80;;;7.60;99.90;;;;;;5073691;28;20205;-86
2020/12/13 01:53:25;;;;;;;0.57;0.57;;;7.60;99.90;;;;;;5061895;28;20188;-86
2020/12/13 01:55:55;;;;;;;1.30;0.60;;;7.60;99.90;;;;;;5073184;28;20185;-86
2020/12/13 01:58:28;;;;;;;3.03;1.10;;;7.70;99.90;;;;;;5074106;28;20296;-86
2020/12/13 02:00:58;;;;;;;2.13;0.87;;;7.80;99.90;;;;;;5073149;28;20230;-86
2020/12/13 02:03:36;;;;;;;1.20;0.63;;;7.80;99.90;;;;;;5073314;28;20205;-86
2020/12/13 02:06:06;;;;;;;1.40;1.30;;;7.80;99.90;;;;;;5073458;28;20731;-86
2020/12/13 02:08:40;;;;;;;2.87;1.87;;;7.80;99.90;;;;;;5073011;28;20184;-86
2020/12/13 02:11:07;;;;;;;0.97;0.83;;;7.80;99.90;;;;;;5073211;28;20551;-86
2020/12/13 02:13:33;;;;;;;1.47;0.20;;;7.80;99.90;;;;;;5073364;28;20219;-86
2020/12/13 02:15:59;;;;;;;1.27;0.97;;;7.90;99.90;;;;;;5071317;28;20189;-86
2020/12/13 02:18:28;;;;;;;0.90;0.80;;;7.90;99.90;;;;;;5074890;28;20197;-86
2020/12/13 02:20:55;;;;;;;2.30;0.97;;;7.90;99.90;;;;;;5069989;28;20227;-86
2020/12/13 02:23:21;;;;;;;3.87;0.73;;;7.90;99.90;;;;;;5074270;28;20220;-85
2020/12/13 02:25:47;;;;;;;0.53;0.53;;;7.90;99.90;;;;;;5074159;28;20264;-86
2020/12/13 02:28:13;;;;;;;1.07;0.77;;;7.90;99.90;;;;;;5073870;28;20207;-86
2020/12/13 02:30:39;;;;;;;2.63;1.10;;;7.80;99.90;;;;;;5073455;28;20201;-86
2020/12/13 02:33:04;;;;;;;0.60;0.60;;;7.70;99.90;;;;;;5074476;28;20188;-86
2020/12/13 02:35:30;;;;;;;1.07;1.00;;;7.60;99.90;;;;;;5073598;28;20649;-85
2020/12/13 02:37:56;;;;;;;1.60;0.40;;;7.30;99.90;;;;;;5074562;28;20197;-86
2020/12/13 02:40:21;;;;;;;3.10;1.07;;;7.40;99.90;;;;;;5073738;28;20235;-86
2020/12/13 02:42:47;;;;;;;3.73;0.83;;;7.50;99.90;;;;;;5072793;28;20208;-86
2020/12/13 02:45:13;;;;;;;1.17;1.13;;;7.60;99.90;;;;;;5072877;28;20188;-87
2020/12/13 02:47:38;;;;;;;1.50;0.93;;;7.60;99.90;;;;;;5074229;28;20177;-86
2020/12/13 02:50:04;;;;;;;1.33;1.13;;;7.70;99.90;;;;;;5069391;28;20185;-85
2020/12/13 02:52:30;;;;;;;2.03;1.17;;;7.70;99.90;;;;;;5074030;28;20637;-86
2020/12/13 02:54:56;;;;;;;1.13;0.70;;;7.60;99.90;;;;;;5072980;28;20234;-85
2020/12/13 02:57:22;;;;;;;1.53;1.40;;;7.70;99.90;;;;;;5070332;28;20185;-85
2020/12/13 02:59:48;;;;;;;1.07;1.00;;;7.70;99.90;;;;;;5070696;28;20188;-86
2020/12/13 03:02:13;;;;;;;1.80;1.10;;;7.70;99.90;;;;;;5070554;28;20206;-86
2020/12/13 03:04:39;;;;;;;0.77;0.37;;;7.70;99.90;;;;;;5072675;28;20295;-86
2020/12/13 03:07:04;;;;;;;1.70;0.50;;;7.70;99.90;;;;;;5078150;28;20220;-86
2020/12/13 03:09:30;;;;;;;1.13;0.53;;;7.70;99.90;;;;;;5072327;28;20563;-86
2020/12/13 03:11:55;;;;;;;0.20;0.20;;;7.70;99.90;;;;;;5072301;28;20291;-86
2020/12/13 03:14:21;;;;;;;0.40;0.40;;;7.80;99.90;;;;;;5073795;28;20189;-86
2020/12/13 03:16:47;;;;;;;0.80;0.60;;;7.70;99.90;;;;;;5073046;28;20417;-86
2020/12/13 03:19:13;;;;;;;4.07;0.60;;;7.70;99.90;;;;;;5073721;28;20196;-86
2020/12/13 03:21:38;;;;;;;1.27;0.77;;;7.80;99.90;;;;;;5071757;28;20204;-87
2020/12/13 03:24:04;;;;;;;2.00;1.03;;;7.80;99.90;;;;;;5072944;28;20248;-86
2020/12/13 03:26:29;;;;;;;2.43;0.90;;;7.70;99.90;;;;;;5072638;28;20226;-86
2020/12/13 03:28:55;;;;;;;1.30;1.20;;;7.70;99.90;;;;;;5072283;28;20184;-86
2020/12/13 03:31:20;;;;;;;1.50;1.03;;;7.70;99.90;;;;;;5072324;28;20247;-86
2020/12/13 03:33:47;;;;;;;2.23;1.13;;;7.80;99.90;;;;;;5071954;28;20197;-86
2020/12/13 03:36:13;;;;;;;0.40;0.40;;;7.80;99.90;;;;;;5071803;28;20196;-85
2020/12/13 03:38:39;;;;;;;0.50;0.50;;;7.70;99.90;;;;;;5071707;28;20730;-85
2020/12/13 03:41:05;;;;;;;1.13;0.87;;;7.70;99.90;;;;;;5073071;28;20236;-86
2020/12/13 03:43:30;;;;;;;1.90;0.87;;;7.80;99.90;;;;;;5071648;28;20212;-86
2020/12/13 03:45:56;;;;;;;5.70;0.70;;;7.80;99.90;;;;;;5071601;28;20177;-86
2020/12/13 03:48:21;;;;;;;0.40;0.40;;;7.90;99.90;;;;;;5071787;28;20215;-86
2020/12/13 03:50:47;;;;;;;1.93;1.43;;;7.90;99.90;;;;;;5068379;28;20711;-85
2020/12/13 03:53:13;;;;;;;1.80;1.23;;;7.90;99.90;;;;;;5080412;28;20193;-86
2020/12/13 03:55:40;;;;;;;1.10;0.70;;;7.90;99.90;;;;;;5070987;28;20186;-86
2020/12/13 03:58:08;;;;;;;0.87;0.77;;;7.90;99.90;;;;;;5066629;28;20568;-86
2020/12/13 04:00:34;;;;;;;4.90;0.93;;;7.90;99.90;;;;;;5067411;28;20208;-86
2020/12/13 04:03:07;;;;;;;0.80;0.63;;;7.90;99.90;;;;;;5066283;28;20214;-86
2020/12/13 04:05:33;;;;;;;1.17;1.10;;;7.90;99.90;;;;;;5071678;28;20181;-86
2020/12/13 04:07:59;;;;;;;1.17;0.53;;;7.90;99.90;;;;;;5083896;28;20203;-86
2020/12/13 04:10:25;;;;;;;1.87;0.80;;;7.90;99.90;;;;;;5071159;28;20251;-86
2020/12/13 04:12:51;;;;;;;2.07;1.47;;;7.90;99.90;;;;;;5071354;28;20193;-86
2020/12/13 04:15:18;;;;;;;1.30;1.20;;;8.00;99.90;;;;;;5064756;28;20186;-86
2020/12/13 04:17:46;;;;;;;3.40;1.60;;;8.00;99.90;;;;;;5071541;28;20193;-86
2020/12/13 04:20:12;;;;;;;0.47;0.37;;;8.00;99.90;;;;;;5062829;28;20293;-85
2020/12/13 04:22:37;;;;;;;0.63;0.63;;;8.00;99.90;;;;;;5076917;28;20272;-86
2020/12/13 04:25:04;;;;;;;0.83;0.83;;;7.90;99.90;;;;;;5070945;28;20180;-87
2020/12/13 04:27:30;;;;;;;3.87;0.77;;;7.90;99.90;;;;;;5070636;28;20268;-85
2020/12/13 04:29:56;;;;;;;0.60;0.60;;;7.80;99.90;;;;;;5070517;28;20217;-86
2020/12/13 04:32:22;;;;;;;1.03;0.73;;;7.70;99.90;;;;;;5059797;28;20824;-86
2020/12/13 04:34:49;;;;;;;0.30;0.30;;;7.80;99.90;;;;;;5071200;28;20234;-86
2020/12/13 04:37:14;;;;;;;2.07;0.80;;;7.80;99.90;;;;;;5070740;28;20253;-86
2020/12/13 04:39:40;;;;;;;1.90;0.80;;;7.80;99.90;;;;;;5071446;28;20221;-86
2020/12/13 04:42:06;;;;;;;0.73;0.40;;;7.90;99.90;;;;;;5070183;28;20220;-85
2020/12/13 04:44:32;;;;;;;0.83;0.73;;;7.90;99.90;;;;;;5072197;28;20208;-86
2020/12/13 04:47:06;;;;;;;0.43;0.43;;;7.90;99.90;;;;;;5068073;28;20177;-87
2020/12/13 04:49:33;;;;;;;1.63;0.40;;;7.90;99.90;;;;;;5062937;28;20189;-87
2020/12/13 04:52:00;;;;;;;1.17;0.90;;;7.90;99.90;;;;;;5070361;28;20254;-86
2020/12/13 04:54:27;;;;;;;1.37;0.50;;;7.90;99.90;;;;;;5066842;28;20185;-87
2020/12/13 04:56:55;;;;;;;1.20;0.90;;;7.90;99.90;;;;;;5070801;28;20189;-86
2020/12/13 04:59:21;;;;;;;0.43;0.43;;;7.90;99.90;;;;;;5069598;28;20189;-86
2020/12/13 05:01:47;;;;;;;4.87;0.57;;;7.90;99.90;;;;;;5069856;28;20213;-86
2020/12/13 05:04:14;;;;;;;2.23;0.73;;;7.90;99.90;;;;;;5071456;28;20208;-87
2020/12/13 05:06:45;;;;;;;7.40;0.93;;;7.80;99.90;;;;;;5060497;28;20181;-86
2020/12/13 05:09:12;;;;;;;0.50;0.50;;;7.80;99.90;;;;;;5068666;28;20181;-86
2020/12/13 05:11:47;;;;;;;1.47;0.47;;;7.80;99.90;;;;;;5067968;28;20217;-86
2020/12/13 05:14:12;;;;;;;0.30;0.30;;;7.80;99.90;;;;;;5068929;28;20189;-84
2020/12/13 05:16:38;;;;;;;2.00;0.77;;;7.80;99.90;;;;;;5058523;28;20192;-86
2020/12/13 05:19:08;;;;;;;1.50;0.47;;;7.90;99.90;;;;;;5066800;28;20206;-85
2020/12/13 05:21:35;;;;;;;0.90;0.87;;;7.90;99.90;;;;;;5065614;28;20237;-85
2020/12/13 05:24:04;;;;;;;0.50;0.37;;;7.90;99.90;;;;;;5061997;28;20251;-85
2020/12/13 05:26:30;;;;;;;0.87;0.33;;;7.90;99.90;;;;;;5070193;28;20209;-84
2020/12/13 05:28:58;;;;;;;0.97;0.70;;;8.00;99.90;;;;;;5065935;28;20192;-85
2020/12/13 05:31:26;;;;;;;1.07;0.97;;;7.90;99.90;;;;;;5066957;28;20200;-84
2020/12/13 05:34:04;;;;;;;0.40;0.40;;;7.90;99.90;;;;;;5066313;28;20663;-87
2020/12/13 05:36:35;;;;;;;1.23;0.57;;;7.70;99.90;;;;;;5062502;28;20637;-85
2020/12/13 05:39:01;;;;;;;1.03;1.00;;;7.60;99.90;;;;;;5068851;28;20669;-85
2020/12/13 05:41:37;;;;;;;1.40;0.20;;;7.70;99.90;;;;;;5065521;28;20242;-85
2020/12/13 05:44:27;;;;;;;0.50;0.50;;;7.80;99.90;;;;;;5065843;28;20558;-85
2020/12/13 05:47:13;;;;;;;1.10;0.80;;;7.90;99.90;;;;;;5070184;28;20180;-85
2020/12/13 05:52:08;;;;;;;0.20;0.20;;;7.90;99.90;;;;;;5058532;28;20205;-84
2020/12/13 05:54:34;;;;;;;0.20;0.20;;;8.00;99.90;;;;;;5069040;28;20201;-85
2020/12/13 05:57:02;;;;;;;0.90;0.63;;;8.00;99.90;;;;;;5065676;28;20192;-84
2020/12/13 05:59:32;;;;;;;1.63;1.20;;;8.00;99.90;;;;;;5064129;28;20653;-84
2020/12/13 06:01:59;;;;;;;0.70;0.70;;;8.00;99.90;;;;;;5080942;28;20208;-85
2020/12/13 06:04:30;;;;;;;0.63;0.63;;;8.00;99.90;;;;;;5068359;28;20250;-86
2020/12/13 06:06:58;;;;;;;2.67;0.40;;;8.00;99.90;;;;;;5069676;28;20187;-84
2020/12/13 06:09:44;;;;;;;0.57;0.40;;;7.90;99.90;;;;;;5063899;28;20200;-85
2020/12/13 06:12:11;;;;;;;1.27;1.17;;;8.00;99.90;;;;;;5059655;28;20240;-85
2020/12/13 06:14:39;;;;;;;2.13;1.20;;;7.90;99.90;;;;;;5068769;28;20712;-85
2020/12/13 06:17:05;;;;;;;1.10;1.07;;;7.90;99.90;;;;;;5068896;28;20189;-84
2020/12/13 06:19:32;;;;;;;2.20;0.20;;;7.90;99.90;;;;;;5068640;28;20204;-86
2020/12/13 06:22:00;;;;;;;0.47;0.47;;;7.90;99.90;;;;;;5074654;28;20322;-87
2020/12/13 06:24:26;;;;;;;4.30;1.70;;;7.90;99.90;;;;;;5069741;28;20213;-86
2020/12/13 06:26:53;;;;;;;1.07;0.93;;;7.80;99.90;;;;;;5066444;28;20286;-85
2020/12/13 06:29:20;;;;;;;2.57;0.87;;;7.70;99.90;;;;;;5069785;28;20186;-84
2020/12/13 06:31:47;;;;;;;2.40;0.43;;;7.70;99.90;;;;;;5066356;28;20193;-84
2020/12/13 06:34:13;;;;;;;2.47;1.13;;;7.80;99.90;;;;;;5068088;28;20185;-85
2020/12/13 06:36:39;;;;;;;1.57;0.50;;;7.80;99.90;;;;;;5071488;28;20272;-84
2020/12/13 06:39:14;;;;;;;0.67;0.67;;;7.80;99.90;;;;;;5071121;28;20193;-84
2020/12/13 06:41:41;;;;;;;0.60;0.53;;;7.80;99.90;;;;;;5070554;28;20262;-85
2020/12/13 06:44:08;;;;;;;0.63;0.63;;;7.80;99.90;;;;;;5071944;28;20692;-83
2020/12/13 06:46:39;;;;;;;0.77;0.77;;;7.80;99.90;;;;;;5071106;28;20185;-85
2020/12/13 06:49:04;;;;;;;0.80;0.80;;;7.80;99.90;;;;;;5072426;28;20185;-84
2020/12/13 06:51:35;;;;;;;1.07;1.00;;;7.90;99.90;;;;;;5067723;28;20292;-84
2020/12/13 06:54:04;;;;;;;1.37;0.70;;;7.90;99.90;;;;;;5070115;28;20198;-84
2020/12/13 06:56:30;;;;;;;0.50;0.50;;;7.80;99.90;;;;;;5065340;28;20181;-85
2020/12/13 06:58:59;;;;;;;0.67;0.50;;;7.80;99.90;;;;;;5070322;28;20193;-85
2020/12/13 07:01:32;;;;;;;0.47;0.47;;;7.80;99.90;;;;;;5069423;28;20211;-86
2020/12/13 07:04:17;;;;;;;2.03;1.40;;;7.90;99.90;;;;;;5066154;28;20209;-85
2020/12/13 07:06:44;;;;;;;1.50;0.73;;;7.80;99.90;;;;;;5066378;28;20235;-84
2020/12/13 07:09:12;;;;;;;1.10;0.87;;;7.80;99.90;;;;;;5058627;28;20236;-85
2020/12/13 07:11:43;;;;;;;0.70;0.63;;;7.80;99.90;;;;;;5071156;28;20205;-84
2020/12/13 07:14:15;;;;;;;3.17;0.53;;;7.80;99.90;;;;;;5067620;28;20239;-83
2020/12/13 07:16:46;;;;;;;1.30;0.93;;;7.70;99.90;;;;;;5070719;28;20189;-85
2020/12/13 07:19:14;;;;;;;1.10;0.73;;;7.70;99.90;;;;;;5065353;28;20565;-83
2020/12/13 07:21:42;;;;;;;0.37;0.37;;;7.70;99.90;;;;;;5070333;28;20305;-83
2020/12/13 07:24:08;;;;;;;0.50;0.50;;;7.80;99.90;;;;;;5066039;28;20243;-83
2020/12/13 07:26:35;;;;;;;1.77;1.13;;;7.80;99.90;;;;;;5071419;28;20788;-83
2020/12/13 07:29:04;;;;;;;1.70;1.20;;;7.90;99.90;;;;;;5069599;28;20192;-83
2020/12/13 07:31:35;;;;;;;1.10;0.63;;;7.90;99.90;;;;;;5062509;28;20581;-84
2020/12/13 07:34:05;;;;;;;0.47;0.47;;;7.90;99.90;;;;;;5069284;28;20192;-84
2020/12/13 07:36:32;;;;;;;0.93;0.93;;;7.90;99.90;;;;;;5066677;28;20189;-83
2020/12/13 07:39:00;;;;;;;3.37;1.00;;;7.90;99.90;;;;;;5069459;28;20700;-83
2020/12/13 07:41:26;;;;;;;1.40;0.97;;;7.90;99.90;;;;;;5069899;28;20204;-83
2020/12/13 07:43:57;;;;;;;1.40;0.70;;;7.90;99.90;;;;;;5067272;28;20212;-83
2020/12/13 07:46:26;;;;;;;0.93;0.57;;;7.90;99.90;;;;;;5062726;28;20188;-83
2020/12/13 07:49:08;;;;;;;2.77;1.47;;;8.00;99.90;;;;;;5061474;28;20213;-83
2020/12/13 07:51:36;;;;;;;0.67;0.60;;;7.90;99.90;;;;;;5068168;28;20210;-83
2020/12/13 07:54:12;;;;;;;1.03;0.83;;;7.90;99.90;;;;;;5062311;28;20185;-84
2020/12/13 07:56:38;;;;;;;1.20;0.93;;;8.00;99.90;;;;;;5068653;28;20579;-83
2020/12/13 07:59:12;;;;;;;1.37;0.77;;;8.00;99.90;;;;;;5066968;28;20742;-84
2020/12/13 08:01:39;;;;;;;0.83;0.70;;;8.00;99.90;;;;;;5066910;28;20200;-83
2020/12/13 08:04:05;;;;;;;0.57;0.53;;;7.90;99.90;;;;;;5068875;28;20217;-83
2020/12/13 08:06:31;;;;;;;0.40;0.40;;;7.90;99.90;;;;;;5067763;28;20253;-83
2020/12/13 08:08:56;;;;;;;0.30;0.30;;;8.00;99.90;;;;;;5066385;28;20212;-84
2020/12/13 08:11:23;;;;;;;0.40;0.40;;;8.00;99.90;;;;;;5063544;28;20685;-83
2020/12/13 08:13:55;;;;;;;0.30;0.30;;;8.00;99.90;;;;;;5065036;28;20289;-85
2020/12/13 08:16:27;;;;;;;0.43;0.43;;;8.00;99.90;;;;;;5070717;28;20676;-85
2020/12/13 08:18:59;;;;;;;1.13;0.73;;;8.10;99.90;;;;;;5069522;28;20674;-85
2020/12/13 08:21:31;;;;;;;1.10;0.53;;;8.10;99.90;;;;;;5069542;28;20228;-85
2020/12/13 08:24:01;;;;;;;0.97;0.97;;;8.10;99.90;;;;;;5083075;28;20652;-83
2020/12/13 08:26:28;;;;;;;0.97;0.70;;;8.10;99.90;;;;;;5066724;28;20882;-84
2020/12/13 08:28:55;;;;;;;5.80;0.50;;;8.10;99.90;;;;;;5063105;28;20249;-84
2020/12/13 08:31:25;;;;;;;0.67;0.67;;;8.20;99.90;;;;;;5067247;28;20227;-85
2020/12/13 08:34:05;;;;;;;0.30;0.30;;;8.20;99.90;;;;;;5067622;28;20603;-84
2020/12/13 08:36:31;;;;;;;2.40;0.53;;;8.30;99.90;;;;;;5067429;28;20193;-84
2020/12/13 08:39:06;;;;;;;1.77;0.67;;;8.30;99.90;;;;;;5063025;28;20208;-84
2020/12/13 08:41:32;;;;;;;1.10;1.10;;;8.40;99.90;;;;;;5067940;28;20205;-84
2020/12/13 08:43:59;;;;;;;0.43;0.43;;;8.40;99.90;;;;;;5068306;28;20849;-84
2020/12/13 08:46:34;;;;;;;0.70;0.70;;;8.40;99.90;;;;;;5066878;28;20180;-84
2020/12/13 08:49:00;;;;;;;0.63;0.63;;;8.40;99.90;;;;;;5070222;28;20190;-84
2020/12/13 08:51:29;;;;;;;0.83;0.60;;;8.40;99.90;;;;;;5067430;28;20203;-85
2020/12/13 08:53:56;;;;;;;0.40;0.30;;;8.50;99.90;;;;;;5066478;28;20201;-84
2020/12/13 08:56:38;;;;;;;4.30;1.17;;;8.30;99.90;;;;;;5063903;28;20187;-85
2020/12/13 08:59:08;;;;;;;0.53;0.37;;;8.40;99.90;;;;;;5066496;28;20654;-85
2020/12/13 09:01:40;;;;;;;0.73;0.40;;;8.40;99.90;;;;;;5074183;28;20200;-85
2020/12/13 09:04:19;;;;;;;1.33;0.93;;;8.50;99.90;;;;;;5067751;28;20239;-84
2020/12/13 09:07:02;;;;;;;1.40;0.43;;;8.60;99.90;;;;;;5068751;28;20181;-85
2020/12/13 09:09:29;;;;;;;1.07;0.93;;;8.60;99.90;;;;;;5069260;28;20268;-86
2020/12/13 09:11:55;;;;;;;1.33;0.90;;;8.60;99.90;;;;;;5073265;28;20205;-85
2020/12/13 09:14:31;;;;;;;0.50;0.50;;;8.70;99.90;;;;;;5063403;28;20196;-85
2020/12/13 09:16:58;;;;;;;1.20;1.00;;;8.70;99.90;;;;;;5069928;28;20199;-86
2020/12/13 09:19:24;;;;;;;1.00;0.90;;;8.90;99.90;;;;;;5070280;28;20221;-86
2020/12/13 09:21:54;;;;;;;1.77;0.80;;;9.00;99.90;;;;;;5071145;28;20308;-85
2020/12/13 09:24:25;;;;;;;0.60;0.60;;;9.00;99.90;;;;;;5069755;28;20302;-86
2020/12/13 09:26:57;;;;;;;2.60;0.80;;;9.10;99.90;;;;;;5067571;28;20795;-85
2020/12/13 09:29:23;;;;;;;0.40;0.40;;;9.00;99.90;;;;;;5067678;28;20174;-85
2020/12/13 09:31:48;;;;;;;0.87;0.67;;;9.10;99.90;;;;;;5068885;28;20196;-85
2020/12/13 09:34:14;;;;;;;0.33;0.33;;;9.20;99.90;;;;;;5068139;28;20184;-85
2020/12/13 09:36:42;;;;;;;0.63;0.50;;;9.30;99.90;;;;;;5070193;28;20181;-85
2020/12/13 09:39:08;;;;;;;2.07;0.97;;;9.40;99.90;;;;;;5083079;28;20663;-85
2020/12/13 09:41:34;;;;;;;0.37;0.37;;;9.50;99.90;;;;;;5065336;28;20247;-84
2020/12/13 09:43:59;;;;;;;0.60;0.60;;;9.50;99.90;;;;;;5059630;28;20211;-84
2020/12/13 09:46:25;;;;;;;1.13;1.03;;;9.70;99.90;;;;;;5068572;28;20235;-83
2020/12/13 09:48:50;;;;;;;1.03;0.80;;;9.90;99.90;;;;;;5067404;28;20185;-84
2020/12/13 09:51:17;;;;;;;0.20;0.20;;;9.90;99.90;;;;;;5068123;28;20205;-83
2020/12/13 09:53:43;;;;;;;0.33;0.30;;;9.90;99.90;;;;;;5068202;28;20274;-85
2020/12/13 09:56:09;;;;;;;0.20;0.20;;;10.00;99.90;;;;;;5069141;28;20833;-86
2020/12/13 09:58:34;;;;;;;0.77;0.40;;;10.10;99.90;;;;;;5065311;28;20284;-86
2020/12/13 10:01:00;;;;;;;0.30;0.30;;;10.10;99.90;;;;;;5069696;28;20258;-85
2020/12/13 10:03:25;;;;;;;0.87;0.87;;;10.10;99.90;;;;;;5069010;28;20302;-85
2020/12/13 10:11:28;;;;;;;0.43;0.43;;;10.40;99.90;;;;;;5073723;28;20250;-85
2020/12/13 10:13:54;;;;;;;0.23;0.23;;;10.20;99.90;;;;;;5074020;28;20193;-85
2020/12/13 10:16:19;;;;;;;0.50;0.50;;;10.30;99.90;;;;;;5078225;28;20244;-85
2020/12/13 10:18:45;;;;;;;0.30;0.30;;;10.20;99.90;;;;;;5073632;28;20193;-85
2020/12/13 10:21:10;;;;;;;0.87;0.30;;;10.20;99.90;;;;;;5072623;28;20224;-85
2020/12/13 10:23:36;;;;;;;0.30;0.30;;;10.10;99.90;;;;;;5080158;28;20704;-85
2020/12/13 10:26:01;;;;;;;0.57;0.57;;;10.10;99.90;;;;;;5072263;28;20270;-85
2020/12/13 10:28:27;;;;;;;0.20;0.20;;;10.00;99.90;;;;;;5072455;28;20197;-85
2020/12/13 10:30:53;;;;;;;0.20;0.20;;;10.10;99.90;;;;;;5072495;28;20205;-85
2020/12/13 10:33:18;;;;;;;1.90;0.40;;;10.00;99.90;;;;;;5072253;28;20192;-84
2020/12/13 10:35:44;;;;;;;0.23;0.23;;;9.90;99.90;;;;;;5072308;28;20252;-84
2020/12/13 10:38:11;;;;;;;0.10;0.10;;;9.90;99.90;;;;;;5071473;28;20643;-84
2020/12/13 10:40:39;;;;;;;0.27;0.20;;;9.80;99.90;;;;;;5060320;28;20205;-84
2020/12/13 10:43:05;;;;;;;0.27;0.27;;;9.80;99.90;;;;;;5071483;28;20645;-84
2020/12/13 10:45:32;;;;;;;0.17;0.17;;;9.80;99.90;;;;;;5068058;28;20184;-84
2020/12/13 10:47:58;;;;;;;2.57;0.30;;;9.80;99.90;;;;;;5071820;28;20230;-84
2020/12/13 10:50:23;;;;;;;0.67;0.40;;;9.80;99.90;;;;;;5071055;28;20576;-85
2020/12/13 10:52:51;;;;;;;0.13;0.13;;;9.80;99.90;;;;;;5067844;28;20202;-85
2020/12/13 10:55:16;;;;;;;0.30;0.30;;;9.90;99.90;;;;;;5065026;28;20187;-84
2020/12/13 10:57:42;;;;;;;0.10;0.10;;;9.90;99.90;;;;;;5064339;28;20256;-86
2020/12/13 11:00:09;;;;;;;0.10;0.10;;;9.90;99.90;;;;;;5071417;28;20182;-86
2020/12/13 11:02:34;;;;;;;0.10;0.10;;;10.00;99.90;;;;;;5068088;28;20184;-87
2020/12/13 11:05:00;;;;;;;0.30;0.30;;;10.00;99.90;;;;;;5072731;28;20212;-86
2020/12/13 11:07:25;;;;;;;0.50;0.50;;;10.00;99.90;;;;;;5080098;28;20188;-87
2020/12/13 11:09:52;;;;;;;0.40;0.40;;;10.10;99.90;;;;;;5071850;28;20264;-86
2020/12/13 11:12:17;;;;;;;0.50;0.50;;;10.10;99.90;;;;;;5075052;28;20214;-87
2020/12/13 11:14:43;;;;;;;0.23;0.23;;;10.10;99.90;;;;;;5071407;28;20182;-86
2020/12/13 11:17:09;;;;;;;0.27;0.27;;;10.20;99.90;;;;;;5072104;28;20191;-85
2020/12/13 11:19:34;;;;;;;0.10;0.10;;;10.20;99.90;;;;;;5070674;28;20235;-86
2020/12/13 11:22:00;;;;;;;1.97;0.33;;;10.30;99.90;;;;;;5070173;28;20627;-84
2020/12/13 11:24:26;;;;;;;0.23;0.23;;;10.40;99.90;;;;;;5069191;28;20211;-86
2020/12/13 11:26:51;;;;;;;0.10;0.10;;;10.50;99.90;;;;;;5066550;28;20185;-86
2020/12/13 11:29:17;;;;;;;0.20;0.20;;;10.50;99.90;;;;;;5071731;28;20192;-86
2020/12/13 11:31:42;;;;;;;0.20;0.20;;;10.50;99.90;;;;;;5071436;28;20196;-86
2020/12/13 11:34:08;;;;;;;0.30;0.20;;;10.60;99.90;;;;;;5072337;28;20196;-86
2020/12/13 11:36:33;;;;;;;0.43;0.43;;;10.70;99.90;;;;;;5072368;28;20192;-84
2020/12/13 11:38:59;;;;;;;0.30;0.30;;;10.80;99.90;;;;;;5069199;28;20249;-83
2020/12/13 11:41:28;;;;;;;0.10;0.10;;;10.80;99.90;;;;;;5069429;28;20212;-83
2020/12/13 11:43:54;;;;;;;0.17;0.17;;;10.90;99.90;;;;;;5069999;28;20229;-84
2020/12/13 11:46:20;;;;;;;0.47;0.37;;;10.90;99.90;;;;;;5069354;28;20179;-83
2020/12/13 11:48:46;;;;;;;0.20;0.20;;;10.80;99.90;;;;;;5072890;28;20223;-83
2020/12/13 11:51:12;;;;;;;0.00;0.00;;;10.80;99.90;;;;;;5071688;28;20549;-84
2020/12/13 11:53:37;;;;;;;0.13;0.13;;;10.80;99.90;;;;;;5072635;28;20553;-85
2020/12/13 11:56:03;;;;;;;0.10;0.10;;;10.80;99.90;;;;;;5074715;28;20189;-84
2020/12/13 11:58:29;;;;;;;1.00;0.50;;;10.80;99.90;;;;;;5072228;28;20184;-84
2020/12/13 12:00:54;;;;;;;0.10;0.10;;;10.90;99.90;;;;;;5069514;28;20227;-84
2020/12/13 12:03:20;;;;;;;0.50;0.50;;;10.90;99.90;;;;;;5077200;28;20207;-85
2020/12/13 12:05:45;;;;;;;0.10;0.10;;;10.90;99.90;;;;;;5072193;28;20179;-84
2020/12/13 12:08:11;;;;;;;0.23;0.23;;;10.90;99.90;;;;;;5067795;28;20323;-84
2020/12/13 12:10:37;;;;;;;0.00;0.00;;;10.90;99.90;;;;;;5069515;28;20208;-86
2020/12/13 12:13:03;;;;;;;0.20;0.17;;;11.00;99.90;;;;;;5067998;28;20193;-83
2020/12/13 12:15:29;;;;;;;0.37;0.33;;;10.90;99.90;;;;;;5067692;28;20186;-83
2020/12/13 12:17:55;;;;;;;0.00;0.00;;;10.90;99.90;;;;;;5068335;28;20196;-83
2020/12/13 12:20:26;;;;;;;0.10;0.10;;;10.90;99.90;;;;;;5071483;28;20191;-83
2020/12/13 12:22:55;;;;;;;0.10;0.10;;;10.80;99.90;;;;;;5078374;28;20563;-84
2020/12/13 12:25:21;;;;;;;0.20;0.10;;;10.80;99.90;;;;;;5071718;28;20183;-83
2020/12/13 12:27:46;;;;;;;0.03;0.03;;;10.80;99.90;;;;;;5070066;28;20558;-82
2020/12/13 12:30:12;;;;;;;0.20;0.20;;;10.80;99.90;;;;;;5066102;28;20183;-83
2020/12/13 12:32:38;;;;;;;0.10;0.10;;;10.90;99.90;;;;;;5070364;28;20190;-83
2020/12/13 12:35:04;;;;;;;0.10;0.10;;;10.90;99.90;;;;;;5071595;28;20194;-83
2020/12/13 12:37:30;;;;;;;0.10;0.10;;;11.00;99.90;;;;;;5069609;28;20584;-84
2020/12/13 12:39:55;;;;;;;0.30;0.30;;;11.00;99.90;;;;;;5070202;28;20277;-84
2020/12/13 12:42:22;;;;;;;1.20;0.23;;;11.00;99.90;;;;;;5070344;28;20212;-83
2020/12/13 12:44:48;;;;;;;0.20;0.20;;;11.10;99.90;;;;;;5071127;28;20219;-83
2020/12/13 12:47:14;;;;;;;0.20;0.20;;;11.10;99.90;;;;;;5065427;28;20180;-83
2020/12/13 12:49:39;;;;;;;0.10;0.10;;;11.10;99.90;;;;;;5069394;28;20265;-83
2020/12/13 12:52:05;;;;;;;0.10;0.10;;;11.10;99.90;;;;;;5069358;28;20686;-83
2020/12/13 12:54:31;;;;;;;0.10;0.10;;;11.00;99.90;;;;;;5073582;28;20181;-82
2020/12/13 12:56:56;;;;;;;0.00;0.00;;;11.00;99.90;;;;;;5063841;28;20202;-83
2020/12/13 12:59:50;;;;;;;0.17;0.17;;;11.30;99.90;;;;;;5064765;28;20300;-83
2020/12/13 13:02:11;;;;;;;0.27;0.27;;;11.60;99.90;;;;;;5069911;28;20221;-85
2020/12/13 13:04:44;;;;;;;0.10;0.10;;;11.60;99.90;;;;;;5069937;28;20214;-85